Glenwood, New Jersey
Current Conditions -  °F | °C
As of 7:05 AM on Monday 26 Jan 2015 (Local Time) from KFWN Reporting Station
Light Snow Light Snow  
Wind Chill:   Ceiling: 2000
Heat Index: 15°   Visibility: 1.5mi
Dew Point:   Wind: 10mph
Humidity: 70%   Direction: 50°NE
Pressure: 29.99"   Gusts: NA
Location:  41.25°N, 74.49°W
Report Text: KFWN 261205Z AUTO 05009KT 1 1/2SM -SN OVC020 M09/M14 A2999 RMK AO2 P0000 T10941139
Loading
Personal Weather Stations






























Interactive Weather Map New forecast layout! Learn more

10-Day Weather Forecast

Advertisements
Track Severe Weather on mobile